Time;durP1;ratioP1;P1;durP2;ratioP2;P2;SDS_P1;SDS_P2;PMS_P1;PMS_P2;Temp;Humidity;BMP_temperature;BMP_pressure;BME280_temperature;BME280_humidity;BME280_pressure;Samples;Min_cycle;Max_cycle;Signal;HPM_P1;HPM_P2
2023/12/21 00:00:21;;;;;;;21.27;7.90;;;8.30;95.50;;;;;;5046408;22;20233;-91
2023/12/21 00:02:46;;;;;;;33.57;9.83;;;8.30;95.40;;;;;;5013791;28;20178;-92
2023/12/21 00:05:12;;;;;;;24.47;8.17;;;8.40;95.30;;;;;;5017256;28;20190;-93
2023/12/21 00:07:37;;;;;;;23.57;8.83;;;8.30;95.20;;;;;;5017624;28;20229;-92
2023/12/21 00:10:03;;;;;;;28.87;10.17;;;8.40;95.20;;;;;;5017123;28;20274;-92
2023/12/21 00:12:29;;;;;;;30.03;9.20;;;8.30;95.10;;;;;;5016720;28;20217;-92
2023/12/21 00:14:55;;;;;;;31.30;9.40;;;8.40;95.00;;;;;;5016150;28;20072;-93
2023/12/21 00:17:21;;;;;;;38.80;8.83;;;8.40;94.90;;;;;;5014889;28;20193;-91
2023/12/21 00:19:47;;;;;;;33.33;10.17;;;8.50;94.80;;;;;;5016764;28;20262;-92
2023/12/21 00:22:12;;;;;;;36.13;9.53;;;8.50;94.70;;;;;;5017358;28;20166;-91
2023/12/21 00:24:38;;;;;;;33.20;8.97;;;8.40;94.80;;;;;;5016704;28;20158;-92
2023/12/21 00:27:03;;;;;;;31.50;7.17;;;8.40;94.80;;;;;;5013704;28;20186;-92
2023/12/21 00:29:30;;;;;;;39.93;7.50;;;8.40;94.80;;;;;;5017731;28;20209;-92
2023/12/21 00:31:56;;;;;;;27.43;7.10;;;8.30;94.80;;;;;;5014899;28;20209;-91
2023/12/21 00:34:21;;;;;;;27.27;5.93;;;8.40;94.80;;;;;;5016166;28;20216;-91
2023/12/21 00:36:47;;;;;;;34.60;7.60;;;8.30;94.70;;;;;;5014793;28;20189;-91
2023/12/21 00:39:12;;;;;;;32.67;7.33;;;8.30;94.70;;;;;;5014185;28;20241;-91
2023/12/21 00:41:38;;;;;;;34.27;6.17;;;8.30;94.60;;;;;;5015757;28;20169;-92
2023/12/21 00:44:06;;;;;;;25.23;6.10;;;8.30;94.50;;;;;;5017511;28;20185;-91
2023/12/21 00:46:32;;;;;;;29.07;6.27;;;8.30;94.40;;;;;;5011128;28;20178;-92
2023/12/21 00:48:57;;;;;;;31.23;11.20;;;8.30;94.40;;;;;;5001359;28;20259;-92
2023/12/21 00:51:23;;;;;;;24.57;8.83;;;8.30;94.40;;;;;;5003327;28;20294;-91
2023/12/21 00:53:48;;;;;;;22.60;8.27;;;8.30;94.50;;;;;;4994553;28;20170;-91
2023/12/21 00:56:14;;;;;;;27.17;9.13;;;8.30;94.70;;;;;;4996334;28;20174;-91
2023/12/21 00:58:39;;;;;;;22.03;7.97;;;8.30;94.80;;;;;;4999473;28;20642;-91
2023/12/21 01:01:05;;;;;;;25.00;9.37;;;8.30;95.00;;;;;;4996876;28;20186;-92
2023/12/21 01:03:31;;;;;;;31.47;9.50;;;8.20;95.20;;;;;;4998893;28;20178;-91
2023/12/21 01:05:56;;;;;;;20.23;7.23;;;8.20;95.30;;;;;;5014644;28;20170;-92
2023/12/21 01:08:22;;;;;;;23.17;7.57;;;8.20;95.40;;;;;;5018462;28;20170;-92
2023/12/21 01:10:48;;;;;;;24.07;8.37;;;8.20;95.40;;;;;;5017868;28;20205;-93
2023/12/21 01:13:14;;;;;;;22.40;8.33;;;8.20;95.40;;;;;;5018788;28;20175;-92
2023/12/21 01:15:41;;;;;;;27.10;8.00;;;8.20;95.50;;;;;;5018842;28;20165;-94
2023/12/21 01:18:06;;;;;;;38.70;9.83;;;8.20;95.80;;;;;;5017638;28;20242;-93
2023/12/21 01:20:32;;;;;;;26.10;8.47;;;8.20;95.80;;;;;;5018391;28;20186;-93
2023/12/21 01:22:57;;;;;;;28.37;8.03;;;8.20;95.80;;;;;;5016198;28;20265;-92
2023/12/21 01:25:23;;;;;;;16.53;4.30;;;8.20;95.80;;;;;;5016326;28;20162;-93
2023/12/21 01:27:48;;;;;;;21.23;5.00;;;8.20;95.80;;;;;;5018465;28;20178;-92
2023/12/21 01:30:14;;;;;;;31.13;6.77;;;8.20;95.80;;;;;;5016292;28;20198;-92
2023/12/21 01:32:40;;;;;;;24.77;5.23;;;8.30;95.70;;;;;;5017470;28;20197;-91
2023/12/21 01:35:05;;;;;;;21.87;5.60;;;8.20;95.70;;;;;;5018404;28;20184;-91
2023/12/21 01:37:31;;;;;;;32.30;6.17;;;8.20;95.70;;;;;;5017609;28;20243;-93
2023/12/21 01:39:57;;;;;;;28.80;6.37;;;8.30;95.70;;;;;;5018727;28;20178;-92
2023/12/21 01:42:22;;;;;;;34.77;5.63;;;8.20;95.60;;;;;;5018507;28;20162;-91
2023/12/21 01:44:48;;;;;;;23.67;4.67;;;8.30;95.50;;;;;;5018898;28;20166;-95
2023/12/21 01:47:14;;;;;;;26.17;6.23;;;8.30;95.40;;;;;;5018172;28;20170;-91
2023/12/21 01:49:40;;;;;;;36.63;9.00;;;8.30;95.40;;;;;;5018639;28;20182;-95
2023/12/21 01:52:08;;;;;;;32.00;9.93;;;8.30;95.30;;;;;;5018560;28;20197;-94
2023/12/21 01:54:35;;;;;;;22.47;7.77;;;8.30;95.20;;;;;;5018655;28;20162;-93
2023/12/21 01:57:01;;;;;;;31.77;8.47;;;8.30;95.10;;;;;;5018265;28;20214;-94
2023/12/21 01:59:26;;;;;;;17.00;7.50;;;8.30;95.10;;;;;;5018199;28;20210;-92
2023/12/21 02:01:52;;;;;;;31.93;9.07;;;8.30;95.30;;;;;;5018011;28;20224;-93
2023/12/21 02:04:18;;;;;;;22.97;7.30;;;8.20;95.50;;;;;;5017567;28;20166;-93
2023/12/21 02:06:44;;;;;;;28.27;6.73;;;8.20;95.70;;;;;;5017352;28;20170;-95
2023/12/21 02:09:09;;;;;;;28.10;7.23;;;8.10;95.70;;;;;;5017842;28;20201;-92
2023/12/21 02:11:35;;;;;;;25.90;6.67;;;8.10;95.80;;;;;;5018115;28;20241;-95
2023/12/21 02:14:01;;;;;;;29.13;7.60;;;8.10;95.90;;;;;;5021842;28;20209;-93
2023/12/21 02:16:48;;;;;;;33.00;6.43;;;8.20;96.10;;;;;;5022664;28;20185;-92
2023/12/21 02:19:15;;;;;;;26.90;7.10;;;8.20;96.10;;;;;;5022262;28;20194;-93
2023/12/21 02:21:42;;;;;;;29.83;8.43;;;8.20;96.20;;;;;;5022470;28;20184;-94
2023/12/21 02:24:14;;;;;;;26.00;5.20;;;8.20;96.20;;;;;;5022536;28;20158;-96
2023/12/21 02:26:40;;;;;;;27.53;4.50;;;8.30;96.10;;;;;;5022476;28;20174;-93
2023/12/21 02:29:06;;;;;;;14.37;4.13;;;8.30;95.90;;;;;;5022283;28;20178;-94
2023/12/21 02:31:31;;;;;;;24.97;5.80;;;8.30;95.80;;;;;;5021901;28;20229;-94
2023/12/21 02:34:00;;;;;;;24.83;5.70;;;8.40;95.60;;;;;;5104931;23;20285;-94
2023/12/21 02:36:25;;;;;;;29.80;5.57;;;8.40;95.50;;;;;;5041617;28;20169;-94
2023/12/21 02:38:51;;;;;;;24.73;6.63;;;8.50;95.20;;;;;;5040858;28;20181;-92
2023/12/21 02:41:17;;;;;;;36.03;6.13;;;8.50;95.10;;;;;;5040966;28;20169;-91
2023/12/21 02:43:43;;;;;;;30.87;5.87;;;8.50;95.00;;;;;;5041533;28;20196;-93
2023/12/21 02:46:09;;;;;;;33.83;7.97;;;8.50;95.00;;;;;;5041498;28;20200;-96
2023/12/21 02:48:37;;;;;;;32.43;9.50;;;8.50;94.80;;;;;;5041576;28;20189;-94
2023/12/21 02:51:03;;;;;;;23.90;8.17;;;8.50;94.80;;;;;;5041555;28;20192;-95
2023/12/21 02:53:29;;;;;;;26.27;7.80;;;8.50;94.80;;;;;;5041479;28;20177;-95
2023/12/21 02:55:54;;;;;;;18.83;6.70;;;8.50;94.80;;;;;;5041487;28;20193;-95
2023/12/21 02:58:20;;;;;;;46.93;11.50;;;8.60;94.80;;;;;;5041275;28;20185;-92
2023/12/21 03:00:45;;;;;;;29.53;8.43;;;8.60;94.80;;;;;;5041344;28;20181;-95
2023/12/21 03:03:11;;;;;;;38.03;8.87;;;8.60;94.80;;;;;;5041244;28;20248;-95
2023/12/21 03:05:37;;;;;;;22.50;7.70;;;8.60;94.80;;;;;;5041172;28;20165;-95
2023/12/21 03:08:03;;;;;;;31.93;8.57;;;8.60;94.70;;;;;;5040935;28;20158;-92
2023/12/21 03:10:29;;;;;;;28.30;9.27;;;8.60;94.60;;;;;;5041117;28;20185;-95
2023/12/21 03:12:55;;;;;;;29.83;7.57;;;8.70;94.50;;;;;;5041242;28;20169;-94
2023/12/21 03:15:20;;;;;;;21.67;7.00;;;8.60;94.50;;;;;;5041198;28;20171;-95
2023/12/21 03:17:46;;;;;;;25.33;7.40;;;8.60;94.50;;;;;;5040423;28;20169;-93
2023/12/21 03:20:12;;;;;;;16.03;6.97;;;8.60;94.50;;;;;;5041069;28;20186;-94
2023/12/21 03:22:37;;;;;;;14.90;4.80;;;8.60;94.50;;;;;;5040620;28;20257;-94
2023/12/21 03:25:04;;;;;;;21.70;4.80;;;8.60;94.50;;;;;;5040353;28;20196;-93
2023/12/21 03:27:29;;;;;;;24.25;5.05;;;8.60;94.70;;;;;;5041044;28;20213;-95
2023/12/21 03:29:55;;;;;;;;;;;8.50;95.00;;;;;;5041170;28;20101;-93
2023/12/21 03:32:20;;;;;;;24.17;5.43;;;8.50;95.30;;;;;;5040967;28;20016;-91
2023/12/21 03:34:46;;;;;;;21.27;4.90;;;8.40;95.50;;;;;;5040745;28;20181;-93
2023/12/21 03:37:11;;;;;;;21.07;5.43;;;8.40;95.60;;;;;;5040632;28;20170;-92
2023/12/21 03:39:37;;;;;;;23.40;6.03;;;8.40;95.70;;;;;;5040611;28;20216;-92
2023/12/21 03:42:03;;;;;;;15.77;4.33;;;8.40;95.80;;;;;;5040596;28;20185;-92
2023/12/21 03:44:29;;;;;;;23.33;6.87;;;8.40;96.00;;;;;;5040465;28;20177;-92
2023/12/21 03:46:54;;;;;;;13.50;5.90;;;8.30;96.00;;;;;;5040714;28;20157;-94
2023/12/21 03:49:20;;;;;;;14.40;6.63;;;8.40;96.00;;;;;;5040385;28;20188;-93
2023/12/21 03:51:45;;;;;;;21.47;8.17;;;8.50;95.90;;;;;;5039970;28;20219;-92
2023/12/21 03:54:11;;;;;;;28.90;10.40;;;8.50;95.90;;;;;;5040485;28;20178;-91
2023/12/21 03:56:42;;;;;;;23.33;8.33;;;8.40;95.80;;;;;;5040290;28;20185;-93
2023/12/21 03:59:08;;;;;;;22.13;7.50;;;8.50;96.00;;;;;;5040181;28;20181;-93
2023/12/21 04:01:33;;;;;;;10.43;5.80;;;8.40;96.10;;;;;;5039617;28;20166;-92
2023/12/21 04:03:59;;;;;;;27.33;9.03;;;8.50;96.20;;;;;;5040197;28;20185;-91
2023/12/21 04:06:24;;;;;;;22.20;9.73;;;8.50;96.10;;;;;;5040261;28;20200;-92
2023/12/21 04:08:54;;;;;;;17.03;7.77;;;8.40;96.10;;;;;;5039993;28;20177;-92
2023/12/21 04:11:20;;;;;;;23.17;9.47;;;8.40;96.20;;;;;;5039893;28;20205;-93
2023/12/21 04:13:49;;;;;;;27.03;10.07;;;8.40;96.20;;;;;;5040121;28;20172;-94
2023/12/21 04:16:14;;;;;;;21.50;9.70;;;8.40;96.20;;;;;;5039802;28;20185;-93
2023/12/21 04:18:40;;;;;;;28.80;9.60;;;8.40;96.20;;;;;;5039907;28;20165;-93
2023/12/21 04:21:09;;;;;;;18.33;7.27;;;8.40;96.30;;;;;;5039827;28;20169;-91
2023/12/21 04:23:35;;;;;;;21.80;7.87;;;8.40;96.30;;;;;;5039647;28;20168;-90
2023/12/21 04:26:00;;;;;;;21.60;6.90;;;8.40;96.30;;;;;;5039799;28;20154;-93
2023/12/21 04:28:26;;;;;;;16.77;5.97;;;8.40;96.30;;;;;;5039278;28;20177;-94
2023/12/21 04:30:51;;;;;;;14.43;6.70;;;8.40;96.40;;;;;;5039465;28;20201;-95
2023/12/21 04:33:18;;;;;;;13.77;4.93;;;8.40;96.40;;;;;;5039217;28;20245;-94
2023/12/21 04:35:44;;;;;;;11.40;5.07;;;8.40;96.50;;;;;;5037890;28;20177;-93
2023/12/21 04:38:10;;;;;;;9.23;5.10;;;8.40;96.50;;;;;;5038372;28;20192;-91
2023/12/21 04:40:36;;;;;;;8.03;4.30;;;8.40;96.50;;;;;;5038974;28;20201;-93
2023/12/21 04:43:02;;;;;;;8.33;6.10;;;8.40;96.60;;;;;;5038318;28;20247;-93
2023/12/21 04:45:28;;;;;;;9.57;5.80;;;8.40;96.60;;;;;;5037976;28;20196;-93
2023/12/21 04:47:53;;;;;;;8.10;5.77;;;8.40;96.60;;;;;;5038482;28;20196;-92
2023/12/21 04:50:20;;;;;;;11.47;5.57;;;8.40;96.60;;;;;;5037555;28;20196;-92
2023/12/21 04:52:46;;;;;;;7.27;6.00;;;8.40;96.60;;;;;;5038068;28;20212;-92
2023/12/21 04:55:13;;;;;;;6.50;5.53;;;8.30;96.60;;;;;;5037447;28;20229;-92
2023/12/21 04:57:38;;;;;;;5.90;4.90;;;8.30;96.60;;;;;;5037301;28;20181;-91
2023/12/21 05:00:08;;;;;;;6.77;5.37;;;8.40;96.60;;;;;;5037385;28;20201;-93
2023/12/21 05:02:35;;;;;;;5.77;5.17;;;8.30;96.60;;;;;;5038138;28;20189;-92
2023/12/21 05:05:01;;;;;;;7.97;5.70;;;8.30;96.60;;;;;;5037675;28;20178;-92
2023/12/21 05:07:27;;;;;;;5.33;4.67;;;8.40;96.60;;;;;;5037235;28;20166;-92
2023/12/21 05:09:58;;;;;;;6.50;5.20;;;8.40;96.60;;;;;;5038181;28;20193;-92
2023/12/21 05:12:25;;;;;;;7.43;4.67;;;8.30;96.60;;;;;;5037325;28;20252;-91
2023/12/21 05:14:50;;;;;;;5.10;4.60;;;8.40;96.60;;;;;;5037559;28;20162;-92
2023/12/21 05:17:16;;;;;;;5.27;4.83;;;8.30;96.60;;;;;;5038101;28;20208;-92
2023/12/21 05:19:42;;;;;;;3.30;2.90;;;8.40;96.60;;;;;;5035392;28;20217;-92
2023/12/21 05:22:08;;;;;;;5.03;2.70;;;8.40;96.60;;;;;;5036876;28;20165;-93
2023/12/21 05:24:33;;;;;;;4.90;2.93;;;8.40;96.50;;;;;;5036764;28;20169;-92
2023/12/21 05:26:59;;;;;;;8.27;2.67;;;8.40;96.50;;;;;;5027598;28;20177;-91
2023/12/21 05:29:25;;;;;;;2.63;2.43;;;8.40;96.50;;;;;;5035334;28;20235;-92
2023/12/21 05:31:53;;;;;;;4.57;2.67;;;8.40;96.50;;;;;;5037064;28;20236;-92
2023/12/21 05:34:18;;;;;;;3.23;2.70;;;8.40;96.50;;;;;;5037785;28;20190;-93
2023/12/21 05:36:44;;;;;;;3.67;2.80;;;8.30;96.60;;;;;;5037039;28;20240;-91
2023/12/21 05:39:10;;;;;;;4.40;2.73;;;8.40;96.60;;;;;;5037169;28;20193;-92
2023/12/21 05:41:36;;;;;;;3.93;3.63;;;8.30;96.60;;;;;;5035805;28;20181;-92
2023/12/21 05:44:03;;;;;;;4.50;4.20;;;8.40;96.70;;;;;;5034357;28;20227;-92
2023/12/21 05:46:28;;;;;;;4.80;4.17;;;8.40;96.70;;;;;;5036561;28;20159;-92
2023/12/21 05:48:54;;;;;;;4.53;4.13;;;8.40;96.70;;;;;;5033449;28;20198;-91
2023/12/21 05:51:20;;;;;;;4.77;4.43;;;8.50;96.70;;;;;;5035764;28;20203;-92
2023/12/21 05:53:45;;;;;;;4.37;4.07;;;8.40;96.70;;;;;;5035765;28;20183;-92
2023/12/21 05:56:11;;;;;;;4.83;4.17;;;8.40;96.70;;;;;;5036300;28;20154;-93
2023/12/21 05:58:36;;;;;;;3.93;3.73;;;8.40;96.70;;;;;;5036473;28;20224;-95
2023/12/21 06:01:04;;;;;;;4.43;4.13;;;8.40;96.70;;;;;;5033151;28;20177;-92
2023/12/21 06:03:30;;;;;;;4.20;3.83;;;8.40;96.70;;;;;;5034112;28;20245;-92
2023/12/21 06:05:55;;;;;;;3.87;3.57;;;8.50;96.70;;;;;;5034321;28;20190;-91
2023/12/21 06:08:21;;;;;;;3.77;3.57;;;8.40;96.70;;;;;;5033583;28;20192;-92
2023/12/21 06:10:47;;;;;;;4.00;3.70;;;8.50;96.70;;;;;;5035251;28;20247;-93
2023/12/21 06:13:12;;;;;;;4.07;3.80;;;8.40;96.70;;;;;;5035968;28;20272;-92
2023/12/21 06:15:38;;;;;;;4.20;3.90;;;8.40;96.60;;;;;;5032786;28;20099;-93
2023/12/21 06:18:04;;;;;;;2.30;2.00;;;8.50;96.70;;;;;;5032002;28;20185;-91
2023/12/21 06:20:30;;;;;;;3.97;2.07;;;8.50;96.70;;;;;;5033087;28;20193;-91
2023/12/21 06:22:56;;;;;;;2.23;2.03;;;8.50;96.70;;;;;;5030747;28;20168;-92
2023/12/21 06:25:22;;;;;;;3.17;2.77;;;8.50;96.70;;;;;;5032664;28;20200;-92
2023/12/21 06:27:47;;;;;;;2.87;2.23;;;8.50;96.70;;;;;;5032943;28;20189;-91
2023/12/21 06:30:13;;;;;;;2.07;1.93;;;8.50;96.70;;;;;;5030778;28;20186;-91
2023/12/21 06:32:40;;;;;;;2.33;2.20;;;8.50;96.70;;;;;;5031765;28;20215;-92
2023/12/21 06:35:05;;;;;;;3.80;2.57;;;8.50;96.70;;;;;;5030846;28;20169;-91
2023/12/21 06:37:31;;;;;;;1.83;1.73;;;8.50;96.70;;;;;;5033266;28;20184;-91
2023/12/21 06:39:57;;;;;;;3.40;3.20;;;8.50;96.70;;;;;;5035130;28;20253;-91
2023/12/21 06:42:22;;;;;;;3.60;3.40;;;8.50;96.70;;;;;;5035635;28;20240;-92
2023/12/21 06:44:48;;;;;;;3.40;3.20;;;8.50;96.80;;;;;;5035987;28;20229;-93
2023/12/21 06:47:14;;;;;;;3.97;3.67;;;8.50;96.80;;;;;;5035402;28;20184;-92
2023/12/21 06:49:39;;;;;;;3.50;3.30;;;8.50;96.80;;;;;;5033865;28;20208;-92
2023/12/21 06:52:05;;;;;;;3.70;3.40;;;8.50;96.80;;;;;;5034745;28;20194;-92
2023/12/21 06:54:30;;;;;;;3.30;3.13;;;8.50;96.80;;;;;;5034183;28;20173;-92
2023/12/21 06:56:56;;;;;;;4.50;4.07;;;8.50;96.80;;;;;;5034731;28;20206;-92
2023/12/21 06:59:22;;;;;;;3.87;3.57;;;8.50;96.80;;;;;;5036517;28;20205;-92
2023/12/21 07:01:47;;;;;;;3.37;3.17;;;8.50;96.80;;;;;;5036712;28;20137;-93
2023/12/21 07:04:13;;;;;;;3.53;3.33;;;8.50;96.70;;;;;;5037219;28;20276;-93
2023/12/21 07:06:38;;;;;;;4.83;3.37;;;8.50;96.70;;;;;;5036036;28;20181;-93
2023/12/21 07:09:05;;;;;;;3.80;3.60;;;8.50;96.60;;;;;;5034809;28;20207;-93
2023/12/21 07:11:32;;;;;;;3.60;3.40;;;8.50;96.60;;;;;;5036545;28;20185;-94
2023/12/21 07:13:57;;;;;;;3.37;3.17;;;8.50;96.60;;;;;;5035417;28;20249;-93
2023/12/21 07:16:23;;;;;;;1.70;1.60;;;8.50;96.50;;;;;;5032318;28;20161;-92
2023/12/21 07:18:50;;;;;;;1.50;1.40;;;8.50;96.50;;;;;;5036390;28;20177;-93
2023/12/21 07:21:16;;;;;;;1.57;1.47;;;8.50;96.40;;;;;;5036337;28;20185;-93
2023/12/21 07:23:41;;;;;;;3.40;1.53;;;8.50;96.40;;;;;;5035934;28;20712;-92
2023/12/21 07:26:09;;;;;;;1.63;1.53;;;8.50;96.40;;;;;;5034735;28;20173;-93
2023/12/21 07:28:35;;;;;;;2.40;1.60;;;8.50;96.40;;;;;;5032762;28;20175;-92
2023/12/21 07:31:00;;;;;;;2.33;1.57;;;8.60;96.40;;;;;;5033424;28;20212;-93
2023/12/21 07:33:26;;;;;;;3.27;1.60;;;8.60;96.30;;;;;;5035242;28;20203;-93
2023/12/21 07:35:52;;;;;;;1.70;1.60;;;8.50;96.30;;;;;;5035620;28;20193;-92
2023/12/21 07:38:17;;;;;;;3.67;1.73;;;8.60;96.30;;;;;;5034977;28;20181;-93
2023/12/21 07:40:43;;;;;;;3.60;3.40;;;8.60;96.20;;;;;;5033559;28;20670;-93
2023/12/21 07:43:09;;;;;;;3.30;3.10;;;8.50;96.20;;;;;;5025284;28;20177;-93
2023/12/21 07:45:35;;;;;;;7.00;4.00;;;8.60;96.30;;;;;;5022228;28;20177;-90
2023/12/21 07:48:00;;;;;;;4.63;4.27;;;8.60;96.20;;;;;;5025230;28;20181;-91
2023/12/21 07:50:27;;;;;;;3.80;3.60;;;8.60;96.30;;;;;;5031364;28;20210;-93
2023/12/21 07:52:56;;;;;;;3.83;3.50;;;8.50;96.30;;;;;;5037469;28;20189;-93
2023/12/21 07:55:22;;;;;;;4.10;3.70;;;8.60;96.30;;;;;;5034674;28;20181;-92
2023/12/21 07:57:48;;;;;;;3.90;3.70;;;8.60;96.30;;;;;;5037003;28;20180;-93
2023/12/21 08:00:14;;;;;;;3.90;3.60;;;8.70;96.20;;;;;;5038608;28;20225;-91
2023/12/21 08:02:44;;;;;;;3.50;3.30;;;8.70;96.20;;;;;;5037177;28;20192;-91
2023/12/21 08:05:13;;;;;;;3.60;3.40;;;8.70;96.10;;;;;;5038167;28;20188;-93
2023/12/21 08:07:39;;;;;;;3.97;3.70;;;8.70;96.10;;;;;;5038544;28;20172;-92
2023/12/21 08:10:07;;;;;;;3.87;3.60;;;8.60;96.10;;;;;;5038409;28;20205;-93
2023/12/21 08:12:35;;;;;;;3.80;3.50;;;8.70;96.20;;;;;;5037703;28;20209;-93
2023/12/21 08:15:01;;;;;;;1.60;1.57;;;8.70;96.10;;;;;;5039156;28;20196;-92
2023/12/21 08:17:26;;;;;;;1.43;1.43;;;8.70;96.10;;;;;;5037954;28;20208;-93
2023/12/21 08:19:52;;;;;;;1.67;1.57;;;8.70;96.00;;;;;;5037525;28;20181;-93
2023/12/21 08:22:17;;;;;;;1.50;1.50;;;8.80;95.90;;;;;;5037712;28;20192;-93
2023/12/21 08:24:43;;;;;;;1.80;1.70;;;8.80;95.70;;;;;;5035464;28;20165;-92
2023/12/21 08:27:08;;;;;;;1.80;1.70;;;8.80;95.60;;;;;;5036666;28;20174;-92
2023/12/21 08:29:34;;;;;;;2.33;2.10;;;8.80;95.50;;;;;;5034983;28;20212;-92
2023/12/21 08:32:00;;;;;;;2.40;1.70;;;8.80;95.60;;;;;;5028753;28;20435;-93
2023/12/21 08:34:26;;;;;;;2.20;2.10;;;8.80;95.40;;;;;;5038217;28;20209;-93
2023/12/21 08:37:09;;;;;;;1.80;1.70;;;8.80;95.30;;;;;;5038350;28;20170;-93
2023/12/21 08:39:35;;;;;;;6.27;3.70;;;8.80;95.00;;;;;;5038237;28;20197;-93
2023/12/21 08:42:02;;;;;;;3.67;3.47;;;8.80;94.80;;;;;;5037083;28;20162;-93
2023/12/21 08:44:28;;;;;;;4.37;3.97;;;8.90;94.50;;;;;;5036830;28;20208;-93
2023/12/21 08:46:54;;;;;;;3.70;3.50;;;9.00;94.20;;;;;;5036583;28;20177;-94
2023/12/21 08:49:19;;;;;;;3.73;3.53;;;8.90;94.10;;;;;;5038133;28;20241;-93
2023/12/21 08:51:45;;;;;;;3.63;3.43;;;8.90;94.40;;;;;;5035802;28;20197;-93
2023/12/21 08:54:10;;;;;;;3.53;3.33;;;9.00;94.30;;;;;;5037112;28;20181;-93
2023/12/21 08:56:44;;;;;;;3.70;3.40;;;9.00;94.40;;;;;;5038385;28;20186;-92
2023/12/21 08:59:10;;;;;;;3.63;3.40;;;9.00;94.30;;;;;;5036856;28;20205;-93
2023/12/21 09:01:35;;;;;;;3.40;3.20;;;9.00;94.50;;;;;;5034537;28;20245;-93
2023/12/21 09:04:02;;;;;;;4.40;4.00;;;9.00;94.60;;;;;;5035053;28;20178;-92
2023/12/21 09:06:28;;;;;;;2.90;2.80;;;9.00;94.70;;;;;;5035770;28;20253;-92
2023/12/21 09:08:53;;;;;;;3.63;3.30;;;9.10;94.80;;;;;;5035014;28;20201;-92
2023/12/21 09:11:19;;;;;;;3.23;3.00;;;9.00;94.90;;;;;;5033630;28;20202;-92
2023/12/21 09:13:47;;;;;;;2.90;1.90;;;8.90;95.10;;;;;;5032370;28;20169;-92
2023/12/21 09:16:14;;;;;;;2.60;1.90;;;9.00;95.30;;;;;;5038582;28;20192;-95
2023/12/21 09:18:43;;;;;;;6.80;1.93;;;8.90;95.40;;;;;;5037713;28;20184;-93
2023/12/21 09:21:08;;;;;;;5.00;2.00;;;9.00;95.50;;;;;;5037881;28;20166;-91
2023/12/21 09:23:34;;;;;;;10.00;3.43;;;9.00;95.70;;;;;;5038897;28;20189;-93
2023/12/21 09:26:00;;;;;;;4.37;2.23;;;9.10;95.60;;;;;;5037924;28;20165;-94
2023/12/21 09:28:25;;;;;;;1.93;1.80;;;9.00;95.60;;;;;;5035830;28;20169;-93
2023/12/21 09:30:52;;;;;;;4.23;1.87;;;9.10;95.60;;;;;;5037756;28;20264;-95
2023/12/21 09:33:18;;;;;;;2.33;2.03;;;9.00;95.70;;;;;;5035385;22;20213;-92
2023/12/21 09:35:44;;;;;;;2.53;1.60;;;9.00;95.90;;;;;;5018424;28;20197;-93
2023/12/21 09:38:10;;;;;;;3.83;3.00;;;9.00;95.90;;;;;;5018146;28;20241;-93
2023/12/21 09:40:36;;;;;;;2.83;2.73;;;9.00;96.10;;;;;;5017424;28;20208;-92
2023/12/21 09:43:05;;;;;;;2.83;2.63;;;9.10;96.10;;;;;;5016185;28;20162;-93
2023/12/21 09:45:31;;;;;;;4.03;3.00;;;9.00;96.10;;;;;;5015810;28;20173;-92
2023/12/21 09:47:58;;;;;;;2.80;2.70;;;9.00;96.20;;;;;;5016326;28;20205;-92
2023/12/21 09:50:25;;;;;;;2.60;2.50;;;9.10;96.20;;;;;;5014996;28;20194;-93
2023/12/21 09:52:51;;;;;;;5.27;2.97;;;9.10;96.20;;;;;;5016852;28;20174;-93
2023/12/21 09:55:19;;;;;;;3.00;2.63;;;9.10;96.20;;;;;;5013882;28;20189;-92
2023/12/21 09:57:46;;;;;;;3.33;3.13;;;9.10;96.20;;;;;;5014261;28;20186;-92
2023/12/21 10:00:12;;;;;;;2.97;2.60;;;9.20;96.20;;;;;;5008775;28;20242;-93
2023/12/21 10:02:37;;;;;;;3.13;2.80;;;9.20;96.10;;;;;;5004283;28;20182;-89
2023/12/21 10:05:03;;;;;;;3.53;2.90;;;9.20;96.00;;;;;;4998518;28;20177;-91
2023/12/21 10:07:30;;;;;;;3.20;2.90;;;9.20;95.90;;;;;;4998517;28;20209;-91
2023/12/21 10:09:57;;;;;;;3.50;3.20;;;9.30;96.00;;;;;;4997247;28;20195;-90
2023/12/21 10:12:23;;;;;;;6.23;2.60;;;9.30;95.90;;;;;;5009386;28;20202;-90
2023/12/21 10:14:59;;;;;;;3.03;2.00;;;9.20;95.90;;;;;;5009633;28;20186;-91
2023/12/21 10:17:25;;;;;;;12.63;2.60;;;9.30;95.90;;;;;;5002833;28;20172;-91
2023/12/21 10:19:51;;;;;;;4.80;2.03;;;9.30;95.90;;;;;;5003946;28;20236;-92
2023/12/21 10:22:18;;;;;;;6.77;2.30;;;9.30;95.80;;;;;;5003257;28;20181;-91
2023/12/21 10:24:46;;;;;;;6.93;2.33;;;9.30;95.70;;;;;;5004079;28;20186;-91
2023/12/21 10:27:15;;;;;;;8.93;2.83;;;9.30;95.80;;;;;;5009599;28;20166;-91
2023/12/21 10:29:41;;;;;;;10.63;4.10;;;9.40;95.70;;;;;;5010539;28;20182;-91
2023/12/21 10:32:08;;;;;;;9.43;2.80;;;9.40;95.60;;;;;;5000678;28;20309;-91
2023/12/21 10:34:36;;;;;;;12.00;3.17;;;9.30;95.70;;;;;;4999258;28;20193;-89
2023/12/21 10:37:02;;;;;;;8.83;4.97;;;9.40;95.70;;;;;;5001703;28;20178;-91
2023/12/21 10:39:30;;;;;;;13.70;4.50;;;9.50;95.70;;;;;;5014601;28;20232;-89
2023/12/21 10:41:56;;;;;;;11.60;5.53;;;9.40;95.60;;;;;;5013440;28;20190;-91
2023/12/21 10:44:22;;;;;;;9.33;4.70;;;9.40;95.60;;;;;;5007538;28;20205;-91
2023/12/21 10:46:48;;;;;;;13.27;5.20;;;9.40;95.60;;;;;;5002919;28;20181;-88
2023/12/21 10:49:14;;;;;;;5.73;4.30;;;9.40;95.70;;;;;;4996986;28;25079;-90
2023/12/21 10:51:43;;;;;;;9.07;4.50;;;9.40;95.70;;;;;;4998087;28;20205;-90
2023/12/21 10:54:09;;;;;;;11.47;4.80;;;9.50;95.80;;;;;;4997189;28;20181;-89
2023/12/21 10:56:42;;;;;;;11.30;4.37;;;9.50;95.90;;;;;;4996717;28;20174;-89
2023/12/21 10:59:08;;;;;;;16.40;4.57;;;9.50;95.90;;;;;;4997794;28;20186;-89
2023/12/21 11:01:34;;;;;;;14.97;5.57;;;9.40;95.90;;;;;;4996945;28;20219;-89
2023/12/21 11:04:01;;;;;;;16.07;6.03;;;9.50;95.70;;;;;;4997253;28;20186;-89
2023/12/21 11:06:31;;;;;;;18.43;6.40;;;9.60;95.60;;;;;;4997658;28;20178;-90
2023/12/21 11:08:58;;;;;;;17.57;5.30;;;9.60;95.40;;;;;;4997057;28;20206;-91
2023/12/21 11:11:25;;;;;;;16.30;3.70;;;9.60;95.30;;;;;;4998125;28;20209;-91
2023/12/21 11:13:55;;;;;;;7.43;3.10;;;9.60;95.30;;;;;;4997384;28;20174;-90
2023/12/21 11:16:45;;;;;;;15.20;3.97;;;9.60;95.30;;;;;;4997619;28;20178;-89
2023/12/21 11:19:16;;;;;;;15.53;4.23;;;9.60;95.10;;;;;;4991855;28;20241;-90
2023/12/21 11:21:42;;;;;;;16.63;5.00;;;9.70;94.80;;;;;;4996146;28;20296;-89
2023/12/21 11:24:09;;;;;;;15.87;4.80;;;9.60;94.60;;;;;;4996873;28;20620;-89
2023/12/21 11:26:36;;;;;;;12.87;4.00;;;9.70;94.70;;;;;;4996747;28;20276;-91
2023/12/21 11:29:03;;;;;;;11.53;4.27;;;9.60;94.60;;;;;;4996482;28;20236;-90
2023/12/21 11:31:38;;;;;;;20.80;5.13;;;9.60;94.60;;;;;;4996546;28;20213;-90
2023/12/21 11:34:14;;;;;;;20.97;5.67;;;9.70;94.10;;;;;;4998058;28;20185;-90
2023/12/21 11:36:41;;;;;;;23.77;7.70;;;9.60;93.90;;;;;;4998548;28;20174;-90
2023/12/21 11:39:12;;;;;;;12.57;7.70;;;9.70;93.60;;;;;;4999070;28;20225;-90
2023/12/21 11:41:58;;;;;;;12.20;9.17;;;9.30;92.10;;;;;;4996728;28;20174;-90
2023/12/21 11:44:33;;;;;;;13.33;10.40;;;8.90;91.20;;;;;;4996456;28;20312;-91
2023/12/21 11:46:59;;;;;;;12.27;10.23;;;8.60;90.60;;;;;;4997128;28;20181;-87
2023/12/21 11:49:25;;;;;;;11.77;10.57;;;8.50;90.90;;;;;;4998060;28;20194;-89
2023/12/21 11:51:51;;;;;;;12.27;9.70;;;8.40;90.80;;;;;;4996333;28;20217;-89
2023/12/21 11:54:22;;;;;;;17.50;10.00;;;8.30;91.30;;;;;;4996167;28;20178;-90
2023/12/21 11:56:49;;;;;;;11.07;8.93;;;8.30;91.30;;;;;;4997017;28;20182;-88
2023/12/21 11:59:16;;;;;;;16.67;9.23;;;8.30;91.60;;;;;;4998420;28;20194;-88
2023/12/21 12:01:45;;;;;;;15.57;9.67;;;8.00;91.70;;;;;;4998498;28;20635;-89
2023/12/21 12:04:12;;;;;;;24.53;10.10;;;8.00;92.10;;;;;;4996854;28;20186;-89
2023/12/21 12:06:38;;;;;;;19.00;8.03;;;7.90;92.40;;;;;;4996598;28;20186;-88
2023/12/21 12:09:03;;;;;;;12.47;6.90;;;7.90;93.00;;;;;;4996870;28;20256;-88
2023/12/21 12:11:29;;;;;;;13.80;6.90;;;7.80;93.10;;;;;;4997911;28;20260;-91
2023/12/21 12:13:58;;;;;;;19.77;5.50;;;7.80;93.00;;;;;;4995646;28;20209;-90
2023/12/21 12:16:23;;;;;;;11.50;5.40;;;7.80;92.70;;;;;;4995466;28;20185;-90
2023/12/21 12:18:49;;;;;;;17.17;5.70;;;7.70;92.50;;;;;;4995800;28;20178;-90
2023/12/21 12:21:16;;;;;;;23.77;4.90;;;7.70;91.70;;;;;;4995518;28;20269;-89
2023/12/21 12:23:46;;;;;;;21.20;6.33;;;7.60;91.80;;;;;;4997083;28;20174;-89
2023/12/21 12:26:14;;;;;;;5.43;4.70;;;7.50;91.60;;;;;;4996923;28;20201;-90
2023/12/21 12:28:39;;;;;;;17.63;6.33;;;7.40;90.80;;;;;;4996346;28;20188;-89
2023/12/21 12:31:05;;;;;;;19.17;5.43;;;7.30;90.60;;;;;;4995298;28;20289;-87
2023/12/21 12:33:33;;;;;;;19.37;6.37;;;7.30;90.70;;;;;;4996189;28;20225;-89
2023/12/21 12:36:03;;;;;;;15.00;9.63;;;7.40;91.00;;;;;;4995432;28;20614;-90
2023/12/21 12:38:29;;;;;;;20.40;9.97;;;7.40;91.00;;;;;;4995354;28;20270;-89
2023/12/21 12:40:56;;;;;;;20.60;8.57;;;7.40;90.60;;;;;;4995615;28;20193;-89
2023/12/21 12:43:22;;;;;;;12.33;8.53;;;7.40;90.60;;;;;;4994864;28;20225;-90
2023/12/21 12:45:47;;;;;;;12.83;8.27;;;7.40;90.50;;;;;;4995387;28;20185;-89